Time;durP1;ratioP1;P1;durP2;ratioP2;P2;SDS_P1;SDS_P2;PMS_P1;PMS_P2;Temp;Humidity;BMP_temperature;BMP_pressure;BME280_temperature;BME280_humidity;BME280_pressure;Samples;Min_cycle;Max_cycle;Signal;HPM_P1;HPM_P2
2022/01/06 00:00:19;;;;;;;;;;;;;;;3.31;86.32;101539.81;5015923;28;19923;-75
2022/01/06 00:02:45;;;;;;;;;;;;;;;3.19;87.15;101548.50;5025695;28;20004;-74
2022/01/06 00:05:10;;;;;;;;;;;;;;;3.09;86.96;101551.16;5022596;28;19949;-73
2022/01/06 00:07:35;;;;;;;;;;;;;;;2.96;87.19;101556.41;5024194;28;19964;-75
2022/01/06 00:10:01;;;;;;;;;;;;;;;2.91;87.96;101557.25;5021575;28;19924;-74
2022/01/06 00:18:13;;;;;;;;;;;;;;;2.86;87.27;101558.16;5022374;28;20281;-73
2022/01/06 00:25:57;;;;;;;;;;;;;;;2.62;88.58;101573.78;5019168;28;19929;-74
2022/01/06 00:28:22;;;;;;;;;;;;;;;2.54;88.77;101561.69;5021241;28;19923;-75
2022/01/06 00:30:48;;;;;;;;;;;;;;;2.64;88.01;101568.59;5016307;28;19921;-74
2022/01/06 00:33:13;;;;;;;;;;;;;;;2.59;87.76;101566.00;5014402;28;19932;-74
2022/01/06 00:35:39;;;;;;;;;;;;;;;2.52;87.98;101566.00;5000448;28;20619;-74
2022/01/06 00:40:45;;;;;;;;;;;;;;;2.47;88.20;101561.72;5020277;28;19929;-75
2022/01/06 00:43:11;;;;;;;;;;;;;;;2.42;88.35;101560.84;5032023;28;19917;-75
2022/01/06 00:45:37;;;;;;;;;;;;;;;2.39;88.67;101560.84;5020828;28;19925;-74
2022/01/06 00:48:03;;;;;;;;;;;;;;;2.51;87.83;101559.97;5034472;28;19925;-74
2022/01/06 00:50:28;;;;;;;;;;;;;;;2.63;87.74;101578.13;5034584;28;19967;-77
2022/01/06 00:52:54;;;;;;;;;;;;;;;3.05;86.33;101574.53;5038107;28;20378;-80
2022/01/06 00:55:20;;;;;;;;;;;;;;;3.18;87.63;101581.41;5022042;28;19975;-77
2022/01/06 00:57:45;;;;;;;;;;;;;;;3.16;88.83;101590.06;5019459;28;19921;-79
2022/01/06 01:00:10;;;;;;;;;;;;;;;3.23;90.00;101595.22;5013265;28;19925;-75
2022/01/06 01:02:36;;;;;;;;;;;;;;;3.17;90.92;101600.44;5025580;28;19948;-77
2022/01/06 01:05:01;;;;;;;;;;;;;;;3.15;91.52;101609.97;5025587;28;19959;-80
2022/01/06 01:07:26;;;;;;;;;;;;;;;3.13;92.18;101629.03;5015677;28;19918;-76
2022/01/06 01:09:52;;;;;;;;;;;;;;;3.21;90.99;101620.31;4993641;28;19917;-77
2022/01/06 01:12:17;;;;;;;;;;;;;;;3.22;91.04;101611.66;5014410;28;19943;-76
2022/01/06 01:17:25;;;;;;;;;;;;;;;3.19;90.89;101605.63;5010851;28;19922;-78
2022/01/06 01:19:51;;;;;;;;;;;;;;;3.09;91.51;101615.16;5026895;28;20325;-78
2022/01/06 01:22:17;;;;;;;;;;;;;;;2.97;91.22;101623.88;5010935;28;20016;-77
2022/01/06 01:24:42;;;;;;;;;;;;;;;2.89;92.28;101618.69;5012804;28;19922;-77
2022/01/06 01:27:07;;;;;;;;;;;;;;;2.86;91.89;101621.31;5013775;28;19968;-76
2022/01/06 01:29:40;;;;;;;;;;;;;;;2.77;92.08;101618.72;5022230;28;20338;-77
2022/01/06 01:32:06;;;;;;;;;;;;;;;2.73;92.01;101625.63;5013765;28;20297;-76
2022/01/06 01:34:31;;;;;;;;;;;;;;;2.61;92.51;101626.53;5013469;28;19932;-76
2022/01/06 01:36:56;;;;;;;;;;;;;;;2.51;92.70;101630.00;5007093;28;19928;-77
2022/01/06 01:39:22;;;;;;;;;;;;;;;2.41;92.88;101641.25;5013840;28;19917;-77
2022/01/06 01:41:48;;;;;;;;;;;;;;;2.37;93.30;101642.09;5021391;28;20404;-77
2022/01/06 01:44:15;;;;;;;;;;;;;;;2.40;93.21;101652.47;5023696;28;19921;-77
2022/01/06 01:46:44;;;;;;;;;;;;;;;2.28;93.54;101651.59;5018172;28;19925;-75
2022/01/06 01:51:52;;;;;;;;;;;;;;;2.18;93.54;101662.84;5013160;28;19925;-78
2022/01/06 01:54:17;;;;;;;;;;;;;;;2.09;93.42;101658.50;5019252;28;19925;-76
2022/01/06 01:56:43;;;;;;;;;;;;;;;2.16;92.90;101664.56;5017239;28;19936;-76
2022/01/06 01:59:08;;;;;;;;;;;;;;;2.20;92.60;101658.53;5014486;28;19921;-75
2022/01/06 02:01:34;;;;;;;;;;;;;;;2.04;92.73;101661.94;5020281;28;20405;-76
2022/01/06 02:03:59;;;;;;;;;;;;;;;2.03;92.60;101665.38;5021216;28;19921;-76
2022/01/06 02:06:25;;;;;;;;;;;;;;;2.03;92.78;101662.78;5018659;28;19926;-75
2022/01/06 02:08:51;;;;;;;;;;;;;;;1.96;92.36;101664.50;5016586;28;19921;-76
2022/01/06 02:11:17;;;;;;;;;;;;;;;1.93;92.54;101667.97;5017942;28;19921;-75
2022/01/06 02:13:59;;;;;;;;;;;;;;;1.89;92.51;101666.22;5021280;28;19918;-75
2022/01/06 02:16:26;;;;;;;;;;;;;;;1.85;92.88;101667.09;5017664;28;20337;-76
2022/01/06 02:18:52;;;;;;;;;;;;;;;1.88;93.00;101674.84;5007351;28;20579;-75
2022/01/06 02:21:18;;;;;;;;;;;;;;;1.95;92.93;101680.91;5018139;28;19925;-76
2022/01/06 02:23:43;;;;;;;;;;;;;;;1.95;92.85;101676.63;5028762;28;19936;-75
2022/01/06 02:26:09;;;;;;;;;;;;;;;1.96;92.97;101675.75;5023556;28;20011;-78
2022/01/06 02:28:34;;;;;;;;;;;;;;;1.90;92.91;101682.66;5028732;28;19921;-79
2022/01/06 02:31:00;;;;;;;;;;;;;;;1.84;93.09;101686.09;5033934;28;19917;-80
2022/01/06 02:33:25;;;;;;;;;;;;;;;1.80;92.95;101684.31;5033565;28;19921;-78
2022/01/06 02:35:51;;;;;;;;;;;;;;;1.76;93.47;101690.38;5032223;28;20327;-79
2022/01/06 02:38:17;;;;;;;;;;;;;;;1.73;94.08;101695.53;5034294;28;19917;-76
2022/01/06 02:40:42;;;;;;;;;;;;;;;1.64;94.58;101691.19;5032225;28;19927;-76
2022/01/06 02:43:08;;;;;;;;;;;;;;;1.59;94.90;101698.94;5024583;28;19924;-75
2022/01/06 02:45:33;;;;;;;;;;;;;;;1.53;95.17;101699.78;5021398;28;19936;-77
2022/01/06 02:48:00;;;;;;;;;;;;;;;1.48;95.53;101710.97;5027071;28;19929;-72
2022/01/06 02:50:26;;;;;;;;;;;;;;;1.44;95.71;101712.69;5007759;28;20359;-75
2022/01/06 02:52:51;;;;;;;;;;;;;;;1.42;96.11;101708.34;5039918;28;19921;-72
2022/01/06 02:55:17;;;;;;;;;;;;;;;1.37;96.80;101718.69;5019106;28;20370;-74
2022/01/06 02:57:43;;;;;;;;;;;;;;;1.38;96.97;101725.56;5023238;28;20374;-74
2022/01/06 03:00:10;;;;;;;;;;;;;;;1.34;97.14;101723.84;5022969;28;19971;-74
2022/01/06 03:02:35;;;;;;;;;;;;;;;1.28;97.03;101721.19;5022820;28;19918;-76
2022/01/06 03:05:01;;;;;;;;;;;;;;;1.20;97.42;101716.00;5024613;28;19940;-71
2022/01/06 03:07:27;;;;;;;;;;;;;;;1.17;97.85;101718.56;5021612;28;19917;-74
2022/01/06 03:09:55;;;;;;;;;;;;;;;1.17;98.25;101722.00;5027289;28;20011;-75
2022/01/06 03:12:26;;;;;;;;;;;;;;;1.17;97.97;101721.16;5032864;28;19985;-74
2022/01/06 03:14:51;;;;;;;;;;;;;;;1.13;98.05;101727.16;5019941;28;20047;-73
2022/01/06 03:17:17;;;;;;;;;;;;;;;1.05;98.28;101717.63;5024500;28;19929;-76
2022/01/06 03:19:42;;;;;;;;;;;;;;;1.10;98.70;101729.75;5029870;28;19960;-77
2022/01/06 03:22:08;;;;;;;;;;;;;;;1.15;99.09;101728.91;5022426;28;19943;-75
2022/01/06 03:24:33;;;;;;;;;;;;;;;1.13;99.17;101740.97;5024518;28;20335;-77
2022/01/06 03:26:58;;;;;;;;;;;;;;;1.16;98.96;101733.19;5025981;28;19930;-76
2022/01/06 03:29:24;;;;;;;;;;;;;;;1.10;99.58;101729.75;5042185;28;20020;-77
2022/01/06 03:31:49;;;;;;;;;;;;;;;1.06;99.00;101732.28;5025259;28;19931;-76
2022/01/06 03:34:14;;;;;;;;;;;;;;;1.01;99.72;101739.16;5025241;28;19971;-76
2022/01/06 03:36:40;;;;;;;;;;;;;;;0.96;99.33;101747.72;5026371;28;20656;-77
2022/01/06 03:39:05;;;;;;;;;;;;;;;0.92;99.18;101742.56;5019520;28;20349;-76
2022/01/06 03:41:30;;;;;;;;;;;;;;;0.90;100.00;101743.38;5036433;28;20040;-76
2022/01/06 03:43:56;;;;;;;;;;;;;;;0.89;100.00;101745.09;4998926;28;20366;-76
2022/01/06 03:46:21;;;;;;;;;;;;;;;0.92;100.00;101745.13;5031553;28;20440;-76
2022/01/06 03:48:47;;;;;;;;;;;;;;;0.80;100.00;101741.56;5028756;28;19974;-76
2022/01/06 03:51:12;;;;;;;;;;;;;;;0.88;100.00;101755.44;5020565;28;20478;-76
2022/01/06 03:53:38;;;;;;;;;;;;;;;0.89;100.00;101752.88;5026366;28;19917;-76
2022/01/06 03:56:03;;;;;;;;;;;;;;;0.87;100.00;101748.53;5033764;28;19924;-76
2022/01/06 03:58:28;;;;;;;;;;;;;;;0.83;100.00;101752.78;5026397;28;19924;-76
2022/01/06 04:00:54;;;;;;;;;;;;;;;0.79;100.00;101752.75;5034811;28;19921;-74
2022/01/06 04:03:19;;;;;;;;;;;;;;;0.76;100.00;101753.59;5012409;28;19924;-73
2022/01/06 04:05:44;;;;;;;;;;;;;;;0.73;100.00;101751.88;5003091;28;19929;-72
2022/01/06 04:08:10;;;;;;;;;;;;;;;0.73;100.00;101745.81;5019252;28;19920;-73
2022/01/06 04:10:35;;;;;;;;;;;;;;;0.71;100.00;101748.41;5025655;28;19918;-73
2022/01/06 04:13:00;;;;;;;;;;;;;;;0.69;100.00;101752.69;5017772;28;19925;-74
2022/01/06 04:15:26;;;;;;;;;;;;;;;0.63;100.00;101750.06;5021603;28;19925;-73
2022/01/06 04:17:52;;;;;;;;;;;;;;;0.63;100.00;101756.94;5029415;28;19921;-75
2022/01/06 04:20:17;;;;;;;;;;;;;;;0.59;100.00;101761.22;5027283;28;19929;-75
2022/01/06 04:22:42;;;;;;;;;;;;;;;0.57;100.00;101760.31;5018844;28;20020;-74
2022/01/06 04:25:08;;;;;;;;;;;;;;;0.55;100.00;101772.41;5020518;28;19963;-74
2022/01/06 04:27:33;;;;;;;;;;;;;;;0.50;100.00;101771.47;5015989;28;19929;-75
2022/01/06 04:29:58;;;;;;;;;;;;;;;0.50;100.00;101774.06;5019066;28;19929;-75
2022/01/06 04:32:24;;;;;;;;;;;;;;;0.48;100.00;101778.34;5032388;28;19972;-73
2022/01/06 04:34:49;;;;;;;;;;;;;;;0.46;100.00;101781.78;5023470;28;19972;-73
2022/01/06 04:37:14;;;;;;;;;;;;;;;0.41;100.00;101786.03;5012021;28;19917;-74
2022/01/06 04:39:40;;;;;;;;;;;;;;;0.39;100.00;101786.84;5023372;28;19931;-73
2022/01/06 04:42:05;;;;;;;;;;;;;;;0.36;100.00;101790.28;5016897;28;19969;-72
2022/01/06 04:44:30;;;;;;;;;;;;;;;0.33;100.00;101792.84;5014340;28;19932;-73
2022/01/06 04:46:55;;;;;;;;;;;;;;;0.25;100.00;101782.44;5019636;28;19976;-73
2022/01/06 04:49:22;;;;;;;;;;;;;;;0.18;100.00;101790.09;5018090;28;19955;-74
2022/01/06 04:51:48;;;;;;;;;;;;;;;0.21;100.00;101795.28;5029633;28;19944;-72
2022/01/06 04:54:13;;;;;;;;;;;;;;;0.10;100.00;101787.41;5023876;28;19925;-74
2022/01/06 04:56:38;;;;;;;;;;;;;;;0.07;100.00;101800.28;5021993;28;19932;-74
2022/01/06 04:59:19;;;;;;;;;;;;;;;0.17;100.00;101793.50;5024511;28;19975;-76
2022/01/06 05:01:44;;;;;;;;;;;;;;;0.20;100.00;101796.16;5024024;28;19925;-75
2022/01/06 05:04:09;;;;;;;;;;;;;;;0.26;100.00;101802.25;5028193;28;19948;-76
2022/01/06 05:06:35;;;;;;;;;;;;;;;0.24;100.00;101792.72;5011067;28;19975;-76
2022/01/06 05:09:00;;;;;;;;;;;;;;;0.27;100.00;101798.81;5025460;28;20012;-74
2022/01/06 05:11:25;;;;;;;;;;;;;;;0.24;100.00;101796.19;5011482;28;19983;-74
2022/01/06 05:13:51;;;;;;;;;;;;;;;0.19;100.00;101790.09;5019125;28;20675;-75
2022/01/06 05:16:16;;;;;;;;;;;;;;;0.24;100.00;101797.91;5020063;28;20545;-75
2022/01/06 05:18:42;;;;;;;;;;;;;;;0.19;100.00;101797.00;5022363;28;20052;-75
2022/01/06 05:21:07;;;;;;;;;;;;;;;0.13;100.00;101795.19;5034834;28;19927;-75
2022/01/06 05:23:32;;;;;;;;;;;;;;;0.05;100.00;101795.09;5019249;28;19923;-74
2022/01/06 05:25:58;;;;;;;;;;;;;;;0.05;100.00;101797.69;5027241;28;20363;-74
2022/01/06 05:28:24;;;;;;;;;;;;;;;0.00;100.00;101799.38;5010422;28;20539;-75
2022/01/06 05:30:49;;;;;;;;;;;;;;;-0.06;100.00;101800.16;5030618;28;19975;-75
2022/01/06 05:33:14;;;;;;;;;;;;;;;0.01;100.00;101806.22;5027470;28;19917;-76
2022/01/06 05:35:39;;;;;;;;;;;;;;;0.00;100.00;101807.09;5022463;28;19917;-79
2022/01/06 05:38:05;;;;;;;;;;;;;;;-0.07;100.00;101813.91;5015759;28;19928;-79
2022/01/06 05:40:30;;;;;;;;;;;;;;;-0.04;100.00;101815.66;5002848;28;19921;-75
2022/01/06 05:42:57;;;;;;;;;;;;;;;-0.17;100.00;101823.25;5012559;28;19918;-75
2022/01/06 05:45:22;;;;;;;;;;;;;;;-0.19;100.00;101814.59;5012820;28;20004;-75
2022/01/06 05:47:48;;;;;;;;;;;;;;;-0.18;100.00;101818.91;5023807;28;21254;-75
2022/01/06 05:50:13;;;;;;;;;;;;;;;-0.16;100.00;101827.56;5025942;28;19933;-75
2022/01/06 05:52:39;;;;;;;;;;;;;;;-0.21;100.00;101826.63;5024153;28;19921;-75
2022/01/06 05:55:04;;;;;;;;;;;;;;;-0.14;100.00;101827.56;5026876;28;20004;-75
2022/01/06 05:57:29;;;;;;;;;;;;;;;-0.16;100.00;101835.31;5023125;28;19925;-77
2022/01/06 05:59:55;;;;;;;;;;;;;;;-0.21;100.00;101836.94;5031195;28;19948;-77
2022/01/06 06:02:20;;;;;;;;;;;;;;;-0.19;100.00;101831.81;5033007;28;19917;-75
2022/01/06 06:04:46;;;;;;;;;;;;;;;-0.17;100.00;101843.91;5012157;28;20389;-75
2022/01/06 06:07:11;;;;;;;;;;;;;;;-0.21;100.00;101836.09;5034274;28;19922;-75
2022/01/06 06:09:36;;;;;;;;;;;;;;;-0.28;100.00;101840.28;5020501;28;20012;-77
2022/01/06 06:12:02;;;;;;;;;;;;;;;-0.30;100.00;101847.16;5030423;28;19917;-74
2022/01/06 06:14:27;;;;;;;;;;;;;;;-0.21;100.00;101846.41;5031252;28;19929;-75
2022/01/06 06:16:52;;;;;;;;;;;;;;;-0.25;100.00;101852.38;5021833;28;20328;-77
2022/01/06 06:19:18;;;;;;;;;;;;;;;-0.28;100.00;101854.94;5038999;28;19925;-77
2022/01/06 06:21:43;;;;;;;;;;;;;;;-0.22;100.00;101839.53;5021047;28;19917;-76
2022/01/06 06:24:08;;;;;;;;;;;;;;;-0.16;100.00;101849.91;5007891;28;19951;-78
2022/01/06 06:26:34;;;;;;;;;;;;;;;-0.05;100.00;101853.53;5020722;28;20347;-76
2022/01/06 06:28:59;;;;;;;;;;;;;;;0.08;100.00;101862.31;5027419;28;19921;-76
2022/01/06 06:31:24;;;;;;;;;;;;;;;0.20;100.00;101865.91;5048261;28;19932;-76
2022/01/06 06:33:50;;;;;;;;;;;;;;;0.23;100.00;101868.53;5025259;28;19921;-76
2022/01/06 06:36:15;;;;;;;;;;;;;;;0.25;100.00;101864.25;5025011;28;19929;-76
2022/01/06 06:38:40;;;;;;;;;;;;;;;0.26;100.00;101869.44;5025449;28;20394;-76
2022/01/06 06:41:06;;;;;;;;;;;;;;;0.27;100.00;101866.03;5028071;28;19975;-75
2022/01/06 06:43:31;;;;;;;;;;;;;;;0.18;100.00;101872.78;5023334;28;20279;-77
2022/01/06 06:45:56;;;;;;;;;;;;;;;0.22;100.00;101874.56;5022682;28;19936;-74
2022/01/06 06:48:22;;;;;;;;;;;;;;;0.19;100.00;101877.09;5028278;28;19975;-74
2022/01/06 06:50:48;;;;;;;;;;;;;;;0.28;100.00;101875.47;5024896;28;20362;-75
2022/01/06 06:53:13;;;;;;;;;;;;;;;0.34;100.00;101891.94;5026286;28;19921;-74
2022/01/06 06:55:38;;;;;;;;;;;;;;;0.35;100.00;101889.34;5005838;28;19925;-75
2022/01/06 06:58:04;;;;;;;;;;;;;;;0.42;100.00;101888.59;5027779;28;19917;-74
2022/01/06 07:00:29;;;;;;;;;;;;;;;0.53;100.00;101886.13;5021903;28;19925;-74
2022/01/06 07:02:54;;;;;;;;;;;;;;;0.59;100.00;101885.34;5019351;28;19932;-75
2022/01/06 07:05:20;;;;;;;;;;;;;;;0.68;100.00;101882.84;5022411;28;20644;-75
2022/01/06 07:07:46;;;;;;;;;;;;;;;0.66;100.00;101883.69;5029353;28;19970;-73
2022/01/06 07:10:11;;;;;;;;;;;;;;;0.73;100.00;101886.38;5026205;28;19921;-73
2022/01/06 07:12:37;;;;;;;;;;;;;;;0.77;100.00;101882.94;5027647;28;19921;-73
2022/01/06 07:15:02;;;;;;;;;;;;;;;0.69;100.00;101881.16;5013928;28;19922;-73
2022/01/06 07:17:28;;;;;;;;;;;;;;;0.61;100.00;101888.81;5016172;28;20616;-74
2022/01/06 07:19:53;;;;;;;;;;;;;;;0.53;100.00;101888.72;5022203;28;19923;-73
2022/01/06 07:22:18;;;;;;;;;;;;;;;0.49;100.00;101889.56;5026556;28;19917;-74
2022/01/06 07:24:44;;;;;;;;;;;;;;;0.42;100.00;101891.19;5026842;28;20344;-73
2022/01/06 07:27:09;;;;;;;;;;;;;;;0.38;100.00;101897.16;5037907;28;19926;-74
2022/01/06 07:29:34;;;;;;;;;;;;;;;0.40;100.00;101897.16;5025151;28;19925;-74
2022/01/06 07:32:00;;;;;;;;;;;;;;;0.60;100.00;101895.72;5026655;28;20011;-70
2022/01/06 07:34:25;;;;;;;;;;;;;;;0.61;100.00;101897.41;5022692;28;20339;-74
2022/01/06 07:36:50;;;;;;;;;;;;;;;0.75;100.00;101904.47;5035536;28;19918;-73
2022/01/06 07:39:15;;;;;;;;;;;;;;;0.75;100.00;101901.91;5021712;28;19979;-73
2022/01/06 07:41:41;;;;;;;;;;;;;;;0.74;100.00;101908.81;5020468;28;20610;-72
2022/01/06 07:44:07;;;;;;;;;;;;;;;0.71;100.00;101916.50;5015899;28;19929;-72
2022/01/06 07:46:48;;;;;;;;;;;;;;;0.64;100.00;101925.06;5024441;28;19931;-73
2022/01/06 07:49:13;;;;;;;;;;;;;;;0.57;100.00;101918.06;5023244;28;19926;-73
2022/01/06 07:51:39;;;;;;;;;;;;;;;0.51;100.00;101911.09;5023461;28;19932;-73
2022/01/06 07:54:05;;;;;;;;;;;;;;;0.54;100.00;101918.03;5026711;28;20310;-72
2022/01/06 07:56:30;;;;;;;;;;;;;;;0.44;100.00;101922.22;5027269;28;19935;-74
2022/01/06 07:58:56;;;;;;;;;;;;;;;0.48;100.00;101921.41;5020270;28;20398;-76
2022/01/06 08:01:21;;;;;;;;;;;;;;;0.39;100.00;101921.28;5018483;28;19928;-77
2022/01/06 08:03:47;;;;;;;;;;;;;;;0.41;100.00;101920.47;5028096;28;19963;-76
2022/01/06 08:06:13;;;;;;;;;;;;;;;0.32;100.00;101925.53;5019791;28;19926;-75
2022/01/06 08:08:38;;;;;;;;;;;;;;;0.25;100.00;101926.28;5030398;28;20302;-76
2022/01/06 08:11:04;;;;;;;;;;;;;;;0.37;100.00;101929.03;5021557;28;19917;-78
2022/01/06 08:13:29;;;;;;;;;;;;;;;0.37;100.00;101923.84;5022566;28;20508;-77
2022/01/06 08:15:54;;;;;;;;;;;;;;;0.36;100.00;101926.44;5012840;28;19928;-78
2022/01/06 08:18:20;;;;;;;;;;;;;;;0.30;100.00;101934.97;5013279;28;20003;-76
2022/01/06 08:20:45;;;;;;;;;;;;;;;0.25;100.00;101934.91;5030491;28;19921;-77
2022/01/06 08:23:11;;;;;;;;;;;;;;;0.22;100.00;101928.84;5027882;28;19917;-78
2022/01/06 08:25:36;;;;;;;;;;;;;;;0.26;100.00;101928.00;5002831;28;19929;-76
2022/01/06 08:28:02;;;;;;;;;;;;;;;0.28;100.00;101928.91;5022086;28;20295;-78
2022/01/06 08:30:27;;;;;;;;;;;;;;;0.37;100.00;101936.78;5014273;28;19933;-79
2022/01/06 08:32:54;;;;;;;;;;;;;;;0.44;100.00;101941.16;5028913;28;19921;-78
2022/01/06 08:35:20;;;;;;;;;;;;;;;0.47;100.00;101940.38;5024668;28;19921;-78
2022/01/06 08:37:46;;;;;;;;;;;;;;;0.46;100.00;101938.63;5022226;28;19925;-76
2022/01/06 08:40:12;;;;;;;;;;;;;;;0.49;100.00;101945.53;5019430;28;19928;-77
2022/01/06 08:42:37;;;;;;;;;;;;;;;0.53;100.00;101945.59;5022133;28;20302;-77
2022/01/06 08:45:03;;;;;;;;;;;;;;;0.58;100.00;101948.25;5017327;28;20298;-77
2022/01/06 08:47:29;;;;;;;;;;;;;;;0.68;100.00;101942.34;5019338;28;20394;-76
2022/01/06 08:49:55;;;;;;;;;;;;;;;0.77;100.00;101944.16;5023130;28;20239;-77
2022/01/06 08:52:20;;;;;;;;;;;;;;;0.83;100.00;101948.56;5019983;28;19929;-78
2022/01/06 08:54:45;;;;;;;;;;;;;;;0.87;100.00;101947.75;5039199;28;20049;-76
2022/01/06 08:57:10;;;;;;;;;;;;;;;0.94;100.00;101941.78;5026107;28;19921;-76
2022/01/06 08:59:36;;;;;;;;;;;;;;;0.99;100.00;101950.47;5024527;28;19971;-76
2022/01/06 09:02:01;;;;;;;;;;;;;;;1.04;100.00;101941.03;5016162;28;19917;-76
2022/01/06 09:04:26;;;;;;;;;;;;;;;1.10;100.00;101947.13;5027338;28;20334;-76
2022/01/06 09:06:52;;;;;;;;;;;;;;;1.17;100.00;101944.59;5023840;28;20007;-77
2022/01/06 09:09:18;;;;;;;;;;;;;;;1.23;100.00;101944.69;5020181;28;19925;-78
2022/01/06 09:11:43;;;;;;;;;;;;;;;1.29;100.00;101943.88;5025133;28;19917;-77
2022/01/06 09:14:09;;;;;;;;;;;;;;;1.38;100.00;101950.84;5019752;28;20750;-78
2022/01/06 09:16:34;;;;;;;;;;;;;;;1.48;100.00;101944.03;5041541;28;20011;-78
2022/01/06 09:18:59;;;;;;;;;;;;;;;1.57;100.00;101943.25;5007931;28;19975;-76
2022/01/06 09:21:25;;;;;;;;;;;;;;;1.68;100.00;101936.44;5021495;28;19966;-76
2022/01/06 09:23:51;;;;;;;;;;;;;;;1.76;100.00;101941.69;5018191;28;19917;-77
2022/01/06 09:26:16;;;;;;;;;;;;;;;1.84;100.00;101943.47;5019606;28;19925;-75
2022/01/06 09:28:41;;;;;;;;;;;;;;;1.91;100.00;101943.53;5026647;28;19927;-76
2022/01/06 09:31:07;;;;;;;;;;;;;;;2.07;100.00;101940.16;5028930;28;19956;-75
2022/01/06 09:33:32;;;;;;;;;;;;;;;2.54;100.00;101936.06;5022485;28;20333;-75
2022/01/06 09:35:57;;;;;;;;;;;;;;;2.92;99.66;101931.91;5018462;28;19928;-76
2022/01/06 09:38:23;;;;;;;;;;;;;;;3.01;98.21;101926.75;5019331;28;19925;-75
2022/01/06 09:40:48;;;;;;;;;;;;;;;3.00;96.11;101927.59;5020216;28;20375;-75
2022/01/06 09:43:13;;;;;;;;;;;;;;;3.02;94.60;101927.59;5015261;28;20474;-76
2022/01/06 09:45:40;;;;;;;;;;;;;;;3.05;94.01;101925.00;5019412;28;20292;-76
2022/01/06 09:48:05;;;;;;;;;;;;;;;3.15;94.45;101929.34;5020289;28;19968;-75
2022/01/06 09:50:31;;;;;;;;;;;;;;;3.28;94.67;101929.38;5019570;28;20044;-75
2022/01/06 09:52:56;;;;;;;;;;;;;;;3.29;92.95;101921.56;5020069;28;19925;-76
2022/01/06 09:55:21;;;;;;;;;;;;;;;3.31;92.31;101919.00;5031728;28;19960;-75
2022/01/06 09:58:02;;;;;;;;;;;;;;;3.30;92.15;101925.06;5011583;28;19949;-75
2022/01/06 10:00:29;;;;;;;;;;;;;;;3.28;91.63;101927.63;5025329;28;21444;-74
2022/01/06 10:02:56;;;;;;;;;;;;;;;3.27;92.10;101925.91;5020676;28;19979;-74
2022/01/06 10:05:22;;;;;;;;;;;;;;;3.28;91.67;101919.84;5022554;28;19928;-76
2022/01/06 10:07:48;;;;;;;;;;;;;;;3.27;91.21;101922.44;5021107;28;19917;-76
2022/01/06 10:10:15;;;;;;;;;;;;;;;3.28;91.50;101930.22;5017582;28;19932;-76
2022/01/06 10:12:41;;;;;;;;;;;;;;;3.31;91.92;101924.19;5017712;28;20933;-76
2022/01/06 10:15:21;;;;;;;;;;;;;;;3.43;92.01;101928.53;5020780;28;19936;-76
2022/01/06 10:17:47;;;;;;;;;;;;;;;4.22;90.00;101910.22;5022779;28;20060;-76
2022/01/06 10:20:14;;;;;;;;;;;;;;;5.06;85.71;101882.03;5019263;28;20405;-77
2022/01/06 10:22:54;;;;;;;;;;;;;;;5.78;82.08;101864.94;5025267;28;20548;-76
2022/01/06 10:25:20;;;;;;;;;;;;;;;6.31;79.33;101854.78;5021577;28;19921;-75
2022/01/06 10:27:46;;;;;;;;;;;;;;;6.81;77.43;101841.94;5004740;28;19929;-76
2022/01/06 10:30:12;;;;;;;;;;;;;;;7.33;75.72;101823.69;5023887;28;19924;-76
2022/01/06 10:32:38;;;;;;;;;;;;;;;7.54;73.77;101813.75;5019778;28;19917;-76
2022/01/06 10:35:04;;;;;;;;;;;;;;;7.32;73.83;101821.97;5022756;28;19924;-74
2022/01/06 10:37:31;;;;;;;;;;;;;;;6.71;76.93;101836.88;5018867;28;19921;-76
2022/01/06 10:39:58;;;;;;;;;;;;;;;6.22;78.55;101865.34;5019469;28;19921;-76
2022/01/06 10:42:25;;;;;;;;;;;;;;;6.07;79.91;101868.13;5020528;28;19921;-76
2022/01/06 10:44:54;;;;;;;;;;;;;;;5.92;81.45;101875.22;5024670;28;19921;-76
2022/01/06 10:47:34;;;;;;;;;;;;;;;5.52;83.17;101883.41;5020116;28;19941;-76
2022/01/06 10:50:15;;;;;;;;;;;;;;;5.20;84.95;101888.03;5029351;28;20010;-77
2022/01/06 10:52:56;;;;;;;;;;;;;;;4.99;85.55;101899.44;5022352;28;20448;-76
2022/01/06 10:55:21;;;;;;;;;;;;;;;4.87;87.65;101904.72;5024819;28;19925;-76
2022/01/06 10:58:02;;;;;;;;;;;;;;;4.72;88.65;101919.59;5023136;28;19922;-77
2022/01/06 11:00:29;;;;;;;;;;;;;;;4.66;88.07;101917.00;5010775;28;19918;-76
2022/01/06 11:03:10;;;;;;;;;;;;;;;4.56;87.87;101903.19;5006637;28;20331;-75
2022/01/06 11:05:37;;;;;;;;;;;;;;;4.55;87.21;101904.03;5014962;28;19925;-75
2022/01/06 11:08:04;;;;;;;;;;;;;;;4.55;86.85;101893.63;5017024;28;20742;-75
2022/01/06 11:10:29;;;;;;;;;;;;;;;4.47;86.19;101897.97;5024064;28;19917;-76
2022/01/06 11:12:55;;;;;;;;;;;;;;;4.48;85.30;101903.19;5026311;28;20208;-77
2022/01/06 11:15:20;;;;;;;;;;;;;;;4.40;85.70;101894.56;5011975;28;19929;-76
2022/01/06 11:17:47;;;;;;;;;;;;;;;4.31;85.60;101886.78;5008281;28;19983;-75
2022/01/06 11:20:12;;;;;;;;;;;;;;;4.28;85.47;101898.06;5008654;28;19921;-76
2022/01/06 11:22:47;;;;;;;;;;;;;;;4.29;86.42;101902.41;5021748;28;19975;-76
2022/01/06 11:25:13;;;;;;;;;;;;;;;4.37;86.08;101899.78;5022183;28;19939;-75
2022/01/06 11:27:38;;;;;;;;;;;;;;;4.36;85.83;101892.84;5018246;28;19925;-75
2022/01/06 11:30:19;;;;;;;;;;;;;;;4.27;86.31;101895.47;5026473;28;19917;-77
2022/01/06 11:32:45;;;;;;;;;;;;;;;4.21;87.11;101895.47;5025949;28;20004;-76
2022/01/06 11:35:11;;;;;;;;;;;;;;;4.15;86.52;101888.56;5026725;28;20036;-75
2022/01/06 11:37:52;;;;;;;;;;;;;;;4.24;86.75;101885.06;5021331;28;19926;-75
2022/01/06 11:40:33;;;;;;;;;;;;;;;4.47;85.89;101883.25;5021227;28;19928;-76
2022/01/06 11:42:58;;;;;;;;;;;;;;;4.68;85.81;101877.97;5009537;28;20972;-77
2022/01/06 11:45:24;;;;;;;;;;;;;;;4.81;85.24;101877.00;5016694;28;19944;-74
2022/01/06 11:48:07;;;;;;;;;;;;;;;4.86;84.49;101866.53;5015552;28;20401;-76
2022/01/06 11:50:47;;;;;;;;;;;;;;;4.88;83.51;101863.06;5005339;28;19925;-77
2022/01/06 11:53:14;;;;;;;;;;;;;;;4.86;83.39;101863.94;5023121;28;20980;-76
2022/01/06 11:55:40;;;;;;;;;;;;;;;4.77;83.35;101859.69;5024223;28;20410;-77
2022/01/06 11:58:21;;;;;;;;;;;;;;;4.65;84.74;101868.41;5022850;28;19921;-76
2022/01/06 12:01:05;;;;;;;;;;;;;;;4.49;85.61;101880.63;5025449;28;19922;-76
2022/01/06 12:03:45;;;;;;;;;;;;;;;4.43;85.27;101865.91;5006145;28;19925;-76
2022/01/06 12:06:26;;;;;;;;;;;;;;;4.30;84.91;101861.66;5024523;28;19929;-76
2022/01/06 12:08:51;;;;;;;;;;;;;;;4.28;85.29;101864.25;5022700;28;19920;-76
2022/01/06 12:11:33;;;;;;;;;;;;;;;4.30;85.28;101859.06;5024766;28;19975;-75
2022/01/06 12:14:00;;;;;;;;;;;;;;;4.21;84.91;101846.06;5008727;28;20455;-76
2022/01/06 12:16:27;;;;;;;;;;;;;;;4.14;84.92;101855.63;5025438;28;20004;-76
2022/01/06 12:18:53;;;;;;;;;;;;;;;4.06;86.15;101860.00;5028183;28;20439;-77
2022/01/06 12:21:18;;;;;;;;;;;;;;;4.02;86.56;101864.34;5019937;28;19951;-76
2022/01/06 12:23:48;;;;;;;;;;;;;;;4.04;86.02;101854.81;5019151;28;20374;-76
2022/01/06 12:26:18;;;;;;;;;;;;;;;4.10;85.93;101852.16;5022347;28;19936;-75
2022/01/06 12:28:45;;;;;;;;;;;;;;;4.15;86.47;101849.56;5030514;28;20274;-76
2022/01/06 12:31:12;;;;;;;;;;;;;;;4.15;86.60;101845.22;5038749;28;20413;-76
2022/01/06 12:33:58;;;;;;;;;;;;;;;4.16;86.43;101839.16;5016871;28;20014;-74
2022/01/06 12:36:23;;;;;;;;;;;;;;;4.21;86.88;101849.53;5007182;28;19921;-76
2022/01/06 12:38:49;;;;;;;;;;;;;;;4.26;87.46;101839.13;5030015;28;19974;-75
2022/01/06 12:41:16;;;;;;;;;;;;;;;4.27;87.42;101840.84;5029650;28;19927;-76
2022/01/06 12:43:43;;;;;;;;;;;;;;;4.32;87.96;101837.34;5023113;28;19921;-75
2022/01/06 12:46:24;;;;;;;;;;;;;;;4.29;88.02;101844.31;5024446;28;19948;-75
2022/01/06 12:51:46;;;;;;;;;;;;;;;4.22;89.76;101850.41;5019652;28;20021;-75
2022/01/06 12:54:30;;;;;;;;;;;;;;;4.18;90.54;101850.44;5021187;28;19921;-75
2022/01/06 12:57:13;;;;;;;;;;;;;;;4.30;90.07;101862.50;5024396;28;19927;-76
2022/01/06 12:59:39;;;;;;;;;;;;;;;4.32;90.64;101867.69;4991979;28;19925;-77